sensor_id;sensor_type;location;lat;lon;timestamp;temperature;humidity
28171;DHT22;15458;53.346;-1.688;2023-07-31T00:00:26;15.60;99.90
28171;DHT22;15458;53.346;-1.688;2023-07-31T00:02:52;15.60;99.90
28171;DHT22;15458;53.346;-1.688;2023-07-31T00:05:18;15.60;99.90
28171;DHT22;15458;53.346;-1.688;2023-07-31T00:07:44;15.60;99.90
28171;DHT22;15458;53.346;-1.688;2023-07-31T00:10:09;15.60;99.90
28171;DHT22;15458;53.346;-1.688;2023-07-31T00:12:35;15.60;99.90
28171;DHT22;15458;53.346;-1.688;2023-07-31T00:15:01;15.60;99.90
28171;DHT22;15458;53.346;-1.688;2023-07-31T00:17:28;15.70;99.90
28171;DHT22;15458;53.346;-1.688;2023-07-31T00:19:53;15.60;99.90
28171;DHT22;15458;53.346;-1.688;2023-07-31T00:22:19;15.60;99.90
28171;DHT22;15458;53.346;-1.688;2023-07-31T00:24:45;15.70;99.90
28171;DHT22;15458;53.346;-1.688;2023-07-31T00:27:10;15.70;99.90
28171;DHT22;15458;53.346;-1.688;2023-07-31T00:29:36;15.70;99.90
28171;DHT22;15458;53.346;-1.688;2023-07-31T00:32:01;15.70;99.90
28171;DHT22;15458;53.346;-1.688;2023-07-31T00:34:27;15.70;99.90
28171;DHT22;15458;53.346;-1.688;2023-07-31T00:36:53;15.70;99.90
28171;DHT22;15458;53.346;-1.688;2023-07-31T00:39:18;15.70;99.90
28171;DHT22;15458;53.346;-1.688;2023-07-31T00:41:44;15.70;99.90
28171;DHT22;15458;53.346;-1.688;2023-07-31T00:44:10;15.70;99.90
28171;DHT22;15458;53.346;-1.688;2023-07-31T00:46:36;15.80;99.90
28171;DHT22;15458;53.346;-1.688;2023-07-31T00:49:02;15.80;99.90
28171;DHT22;15458;53.346;-1.688;2023-07-31T00:51:27;15.70;99.90
28171;DHT22;15458;53.346;-1.688;2023-07-31T00:53:53;15.80;99.90
28171;DHT22;15458;53.346;-1.688;2023-07-31T00:56:22;15.80;99.90
28171;DHT22;15458;53.346;-1.688;2023-07-31T00:58:49;15.70;99.90
28171;DHT22;15458;53.346;-1.688;2023-07-31T01:01:15;15.70;99.90
28171;DHT22;15458;53.346;-1.688;2023-07-31T01:03:40;15.70;99.90
28171;DHT22;15458;53.346;-1.688;2023-07-31T01:11:46;15.70;99.90
28171;DHT22;15458;53.346;-1.688;2023-07-31T01:14:13;15.80;99.90
28171;DHT22;15458;53.346;-1.688;2023-07-31T01:16:39;15.80;99.90
28171;DHT22;15458;53.346;-1.688;2023-07-31T01:19:06;15.70;99.90
28171;DHT22;15458;53.346;-1.688;2023-07-31T01:22:01;15.80;99.90
28171;DHT22;15458;53.346;-1.688;2023-07-31T01:27:34;15.70;99.90
28171;DHT22;15458;53.346;-1.688;2023-07-31T01:30:22;15.80;99.90
28171;DHT22;15458;53.346;-1.688;2023-07-31T01:32:51;15.80;99.90
28171;DHT22;15458;53.346;-1.688;2023-07-31T01:35:18;15.80;99.90
28171;DHT22;15458;53.346;-1.688;2023-07-31T01:37:45;15.80;99.90
28171;DHT22;15458;53.346;-1.688;2023-07-31T01:40:11;15.80;99.90
28171;DHT22;15458;53.346;-1.688;2023-07-31T01:42:36;15.80;99.90
28171;DHT22;15458;53.346;-1.688;2023-07-31T01:45:02;15.80;99.90
28171;DHT22;15458;53.346;-1.688;2023-07-31T01:47:28;15.80;99.90
28171;DHT22;15458;53.346;-1.688;2023-07-31T01:49:53;15.80;99.90
28171;DHT22;15458;53.346;-1.688;2023-07-31T01:52:19;15.80;99.90
28171;DHT22;15458;53.346;-1.688;2023-07-31T01:54:44;15.80;99.90
28171;DHT22;15458;53.346;-1.688;2023-07-31T01:57:10;15.80;99.90
28171;DHT22;15458;53.346;-1.688;2023-07-31T01:59:36;15.80;99.90
28171;DHT22;15458;53.346;-1.688;2023-07-31T02:02:01;15.80;99.90
28171;DHT22;15458;53.346;-1.688;2023-07-31T02:04:27;15.80;99.90
28171;DHT22;15458;53.346;-1.688;2023-07-31T02:06:53;15.90;99.90
28171;DHT22;15458;53.346;-1.688;2023-07-31T02:09:19;15.90;99.90
28171;DHT22;15458;53.346;-1.688;2023-07-31T02:11:45;15.90;99.90
28171;DHT22;15458;53.346;-1.688;2023-07-31T02:14:10;15.90;99.90
28171;DHT22;15458;53.346;-1.688;2023-07-31T02:16:36;15.90;99.90
28171;DHT22;15458;53.346;-1.688;2023-07-31T02:19:01;15.90;99.90
28171;DHT22;15458;53.346;-1.688;2023-07-31T02:21:27;16.00;99.90
28171;DHT22;15458;53.346;-1.688;2023-07-31T02:23:53;16.00;99.90
28171;DHT22;15458;53.346;-1.688;2023-07-31T02:26:18;16.00;99.90
28171;DHT22;15458;53.346;-1.688;2023-07-31T02:28:44;16.00;99.90
28171;DHT22;15458;53.346;-1.688;2023-07-31T02:31:09;16.00;99.90
28171;DHT22;15458;53.346;-1.688;2023-07-31T02:33:35;16.00;99.90
28171;DHT22;15458;53.346;-1.688;2023-07-31T02:36:01;16.00;99.90
28171;DHT22;15458;53.346;-1.688;2023-07-31T02:38:26;16.00;99.90
28171;DHT22;15458;53.346;-1.688;2023-07-31T02:40:52;16.10;99.90
28171;DHT22;15458;53.346;-1.688;2023-07-31T02:43:17;16.10;99.90
28171;DHT22;15458;53.346;-1.688;2023-07-31T02:45:43;16.10;99.90
28171;DHT22;15458;53.346;-1.688;2023-07-31T02:48:09;16.10;99.90
28171;DHT22;15458;53.346;-1.688;2023-07-31T02:50:34;16.10;99.90
28171;DHT22;15458;53.346;-1.688;2023-07-31T02:53:00;16.10;99.90
28171;DHT22;15458;53.346;-1.688;2023-07-31T02:55:26;16.10;99.90
28171;DHT22;15458;53.346;-1.688;2023-07-31T02:57:51;16.10;99.90
28171;DHT22;15458;53.346;-1.688;2023-07-31T03:00:18;16.20;99.90
28171;DHT22;15458;53.346;-1.688;2023-07-31T03:02:43;16.20;99.90
28171;DHT22;15458;53.346;-1.688;2023-07-31T03:05:09;16.20;99.90
28171;DHT22;15458;53.346;-1.688;2023-07-31T03:07:34;16.20;99.90
28171;DHT22;15458;53.346;-1.688;2023-07-31T03:10:00;16.20;99.90
28171;DHT22;15458;53.346;-1.688;2023-07-31T03:12:26;16.20;99.90
28171;DHT22;15458;53.346;-1.688;2023-07-31T03:14:52;16.20;99.90
28171;DHT22;15458;53.346;-1.688;2023-07-31T03:17:17;16.20;99.90
28171;DHT22;15458;53.346;-1.688;2023-07-31T03:19:43;16.20;99.90
28171;DHT22;15458;53.346;-1.688;2023-07-31T03:22:08;16.30;99.90
28171;DHT22;15458;53.346;-1.688;2023-07-31T03:24:34;16.30;99.90
28171;DHT22;15458;53.346;-1.688;2023-07-31T03:26:59;16.20;99.90
28171;DHT22;15458;53.346;-1.688;2023-07-31T03:29:25;16.30;99.90
28171;DHT22;15458;53.346;-1.688;2023-07-31T03:31:51;16.30;99.90
28171;DHT22;15458;53.346;-1.688;2023-07-31T03:34:17;16.30;99.90
28171;DHT22;15458;53.346;-1.688;2023-07-31T03:36:42;16.30;99.90
28171;DHT22;15458;53.346;-1.688;2023-07-31T03:39:08;16.30;99.90
28171;DHT22;15458;53.346;-1.688;2023-07-31T03:41:34;16.30;99.90
28171;DHT22;15458;53.346;-1.688;2023-07-31T03:43:59;16.30;99.90
28171;DHT22;15458;53.346;-1.688;2023-07-31T03:46:25;16.30;99.90
28171;DHT22;15458;53.346;-1.688;2023-07-31T03:48:51;16.30;99.90
28171;DHT22;15458;53.346;-1.688;2023-07-31T03:51:17;16.30;99.90
28171;DHT22;15458;53.346;-1.688;2023-07-31T03:53:43;16.30;99.90
28171;DHT22;15458;53.346;-1.688;2023-07-31T03:56:09;16.30;99.90
28171;DHT22;15458;53.346;-1.688;2023-07-31T03:58:35;16.30;99.90
28171;DHT22;15458;53.346;-1.688;2023-07-31T04:01:02;16.30;99.90
28171;DHT22;15458;53.346;-1.688;2023-07-31T04:03:28;16.30;99.90
28171;DHT22;15458;53.346;-1.688;2023-07-31T04:05:54;16.30;99.90
28171;DHT22;15458;53.346;-1.688;2023-07-31T04:08:23;16.30;99.90
28171;DHT22;15458;53.346;-1.688;2023-07-31T04:10:49;16.30;99.90
28171;DHT22;15458;53.346;-1.688;2023-07-31T04:13:15;16.30;99.90
28171;DHT22;15458;53.346;-1.688;2023-07-31T04:15:41;16.30;99.90
28171;DHT22;15458;53.346;-1.688;2023-07-31T04:18:07;16.30;99.90
28171;DHT22;15458;53.346;-1.688;2023-07-31T04:20:33;16.30;99.90
28171;DHT22;15458;53.346;-1.688;2023-07-31T04:22:59;16.30;99.90
28171;DHT22;15458;53.346;-1.688;2023-07-31T04:25:24;16.30;99.90
28171;DHT22;15458;53.346;-1.688;2023-07-31T04:27:50;16.30;99.90
28171;DHT22;15458;53.346;-1.688;2023-07-31T04:30:16;16.30;99.90
28171;DHT22;15458;53.346;-1.688;2023-07-31T04:32:41;16.30;99.90
28171;DHT22;15458;53.346;-1.688;2023-07-31T04:35:07;16.40;99.90
28171;DHT22;15458;53.346;-1.688;2023-07-31T04:37:33;16.40;99.90
28171;DHT22;15458;53.346;-1.688;2023-07-31T04:39:58;16.40;99.90
28171;DHT22;15458;53.346;-1.688;2023-07-31T04:42:24;16.40;99.90
28171;DHT22;15458;53.346;-1.688;2023-07-31T04:44:50;16.30;99.90
28171;DHT22;15458;53.346;-1.688;2023-07-31T04:47:15;16.30;99.90
28171;DHT22;15458;53.346;-1.688;2023-07-31T04:49:41;16.40;99.90
28171;DHT22;15458;53.346;-1.688;2023-07-31T04:52:07;16.30;99.90
28171;DHT22;15458;53.346;-1.688;2023-07-31T04:54:32;16.30;99.90
28171;DHT22;15458;53.346;-1.688;2023-07-31T04:56:58;16.30;99.90
28171;DHT22;15458;53.346;-1.688;2023-07-31T04:59:23;16.30;99.90
28171;DHT22;15458;53.346;-1.688;2023-07-31T05:01:49;16.30;99.90
28171;DHT22;15458;53.346;-1.688;2023-07-31T05:04:15;16.30;99.90
28171;DHT22;15458;53.346;-1.688;2023-07-31T05:06:41;16.30;99.90
28171;DHT22;15458;53.346;-1.688;2023-07-31T05:09:07;16.30;99.90
28171;DHT22;15458;53.346;-1.688;2023-07-31T05:11:34;16.30;99.90
28171;DHT22;15458;53.346;-1.688;2023-07-31T05:14:00;16.20;99.90
28171;DHT22;15458;53.346;-1.688;2023-07-31T05:16:26;16.20;99.90
28171;DHT22;15458;53.346;-1.688;2023-07-31T05:18:51;16.20;99.90
28171;DHT22;15458;53.346;-1.688;2023-07-31T05:21:17;16.20;99.90
28171;DHT22;15458;53.346;-1.688;2023-07-31T05:23:43;16.20;99.90
28171;DHT22;15458;53.346;-1.688;2023-07-31T05:26:08;16.20;99.90
28171;DHT22;15458;53.346;-1.688;2023-07-31T05:28:37;16.20;99.90
28171;DHT22;15458;53.346;-1.688;2023-07-31T05:31:04;16.10;99.90
28171;DHT22;15458;53.346;-1.688;2023-07-31T05:33:30;16.10;99.90
28171;DHT22;15458;53.346;-1.688;2023-07-31T05:35:56;16.10;99.90
28171;DHT22;15458;53.346;-1.688;2023-07-31T05:38:22;16.10;99.90
28171;DHT22;15458;53.346;-1.688;2023-07-31T05:40:47;16.10;99.90
28171;DHT22;15458;53.346;-1.688;2023-07-31T05:43:14;16.10;99.90
28171;DHT22;15458;53.346;-1.688;2023-07-31T05:45:41;16.10;99.90
28171;DHT22;15458;53.346;-1.688;2023-07-31T05:48:07;16.10;99.90
28171;DHT22;15458;53.346;-1.688;2023-07-31T05:50:33;16.10;99.90
28171;DHT22;15458;53.346;-1.688;2023-07-31T05:52:59;16.10;99.90
28171;DHT22;15458;53.346;-1.688;2023-07-31T05:55:25;16.10;99.90
28171;DHT22;15458;53.346;-1.688;2023-07-31T05:57:54;16.10;99.90
28171;DHT22;15458;53.346;-1.688;2023-07-31T06:00:20;16.20;99.90
28171;DHT22;15458;53.346;-1.688;2023-07-31T06:02:47;16.20;99.90
28171;DHT22;15458;53.346;-1.688;2023-07-31T06:05:13;16.20;99.90
28171;DHT22;15458;53.346;-1.688;2023-07-31T06:07:38;16.30;99.90
28171;DHT22;15458;53.346;-1.688;2023-07-31T06:10:05;16.30;99.90
28171;DHT22;15458;53.346;-1.688;2023-07-31T06:12:34;16.30;99.90
28171;DHT22;15458;53.346;-1.688;2023-07-31T06:15:01;16.40;99.90
28171;DHT22;15458;53.346;-1.688;2023-07-31T06:17:28;16.30;99.90
28171;DHT22;15458;53.346;-1.688;2023-07-31T06:19:54;16.40;99.90
28171;DHT22;15458;53.346;-1.688;2023-07-31T06:22:20;16.40;99.90
28171;DHT22;15458;53.346;-1.688;2023-07-31T06:24:46;16.40;99.90
28171;DHT22;15458;53.346;-1.688;2023-07-31T06:27:12;16.40;99.90
28171;DHT22;15458;53.346;-1.688;2023-07-31T06:29:37;16.40;99.90
28171;DHT22;15458;53.346;-1.688;2023-07-31T06:32:03;16.40;99.90
28171;DHT22;15458;53.346;-1.688;2023-07-31T06:34:29;16.40;99.90
28171;DHT22;15458;53.346;-1.688;2023-07-31T06:36:56;16.40;99.90
28171;DHT22;15458;53.346;-1.688;2023-07-31T06:39:21;16.40;99.90
28171;DHT22;15458;53.346;-1.688;2023-07-31T06:41:47;16.40;99.90
28171;DHT22;15458;53.346;-1.688;2023-07-31T06:44:13;16.50;99.90
28171;DHT22;15458;53.346;-1.688;2023-07-31T06:46:38;16.40;99.90
28171;DHT22;15458;53.346;-1.688;2023-07-31T06:49:04;16.50;99.90
28171;DHT22;15458;53.346;-1.688;2023-07-31T06:51:29;16.50;99.90
28171;DHT22;15458;53.346;-1.688;2023-07-31T06:53:59;16.50;99.90
28171;DHT22;15458;53.346;-1.688;2023-07-31T06:56:25;16.50;99.90
28171;DHT22;15458;53.346;-1.688;2023-07-31T06:58:51;16.50;99.90
28171;DHT22;15458;53.346;-1.688;2023-07-31T07:01:17;16.50;99.90
28171;DHT22;15458;53.346;-1.688;2023-07-31T07:03:42;16.50;99.90
28171;DHT22;15458;53.346;-1.688;2023-07-31T07:06:08;16.50;99.90
28171;DHT22;15458;53.346;-1.688;2023-07-31T07:08:34;16.50;99.90
28171;DHT22;15458;53.346;-1.688;2023-07-31T07:11:00;16.60;99.90
28171;DHT22;15458;53.346;-1.688;2023-07-31T07:13:25;16.50;99.90
28171;DHT22;15458;53.346;-1.688;2023-07-31T07:15:51;16.50;99.90
28171;DHT22;15458;53.346;-1.688;2023-07-31T07:18:18;16.50;99.90
28171;DHT22;15458;53.346;-1.688;2023-07-31T07:20:49;16.60;99.90
28171;DHT22;15458;53.346;-1.688;2023-07-31T07:23:15;16.50;99.90
28171;DHT22;15458;53.346;-1.688;2023-07-31T07:25:40;16.60;99.90
28171;DHT22;15458;53.346;-1.688;2023-07-31T07:28:06;16.60;99.90
28171;DHT22;15458;53.346;-1.688;2023-07-31T07:30:31;16.60;99.90
28171;DHT22;15458;53.346;-1.688;2023-07-31T07:32:57;16.60;99.90
28171;DHT22;15458;53.346;-1.688;2023-07-31T07:35:23;16.60;99.90
28171;DHT22;15458;53.346;-1.688;2023-07-31T07:37:49;16.60;99.90
28171;DHT22;15458;53.346;-1.688;2023-07-31T07:40:17;16.60;99.90
28171;DHT22;15458;53.346;-1.688;2023-07-31T07:42:43;16.60;99.90
28171;DHT22;15458;53.346;-1.688;2023-07-31T07:45:09;16.70;99.90
28171;DHT22;15458;53.346;-1.688;2023-07-31T07:47:34;16.70;99.90
28171;DHT22;15458;53.346;-1.688;2023-07-31T07:50:00;16.70;99.90
28171;DHT22;15458;53.346;-1.688;2023-07-31T07:52:26;16.70;99.90
28171;DHT22;15458;53.346;-1.688;2023-07-31T07:54:51;16.70;99.90
28171;DHT22;15458;53.346;-1.688;2023-07-31T07:57:17;16.70;99.90
28171;DHT22;15458;53.346;-1.688;2023-07-31T07:59:44;16.70;99.90
28171;DHT22;15458;53.346;-1.688;2023-07-31T08:02:09;16.70;99.90
28171;DHT22;15458;53.346;-1.688;2023-07-31T08:04:35;16.70;99.90
28171;DHT22;15458;53.346;-1.688;2023-07-31T08:07:00;16.70;99.90
28171;DHT22;15458;53.346;-1.688;2023-07-31T08:09:26;16.70;99.90
28171;DHT22;15458;53.346;-1.688;2023-07-31T08:11:52;16.70;99.90
28171;DHT22;15458;53.346;-1.688;2023-07-31T08:14:17;16.70;99.90
28171;DHT22;15458;53.346;-1.688;2023-07-31T08:16:43;16.70;99.90
28171;DHT22;15458;53.346;-1.688;2023-07-31T08:19:08;16.70;99.90
28171;DHT22;15458;53.346;-1.688;2023-07-31T08:21:34;16.80;99.90
28171;DHT22;15458;53.346;-1.688;2023-07-31T08:24:00;16.70;99.90
28171;DHT22;15458;53.346;-1.688;2023-07-31T08:26:25;16.70;99.90
28171;DHT22;15458;53.346;-1.688;2023-07-31T08:28:51;16.70;99.90
28171;DHT22;15458;53.346;-1.688;2023-07-31T08:31:16;16.70;99.90
28171;DHT22;15458;53.346;-1.688;2023-07-31T08:33:43;16.70;99.90
28171;DHT22;15458;53.346;-1.688;2023-07-31T08:36:09;16.70;99.90
28171;DHT22;15458;53.346;-1.688;2023-07-31T08:38:35;16.70;99.90
28171;DHT22;15458;53.346;-1.688;2023-07-31T08:41:02;16.70;99.90
28171;DHT22;15458;53.346;-1.688;2023-07-31T08:43:28;16.70;99.90
28171;DHT22;15458;53.346;-1.688;2023-07-31T08:45:54;16.70;99.90
28171;DHT22;15458;53.346;-1.688;2023-07-31T08:48:21;16.70;99.90
28171;DHT22;15458;53.346;-1.688;2023-07-31T08:50:48;16.70;99.90
28171;DHT22;15458;53.346;-1.688;2023-07-31T08:53:13;16.70;99.90
28171;DHT22;15458;53.346;-1.688;2023-07-31T08:55:40;16.70;99.90
28171;DHT22;15458;53.346;-1.688;2023-07-31T08:58:06;16.70;99.90
28171;DHT22;15458;53.346;-1.688;2023-07-31T09:00:35;16.70;99.90
28171;DHT22;15458;53.346;-1.688;2023-07-31T09:03:15;16.70;99.90
28171;DHT22;15458;53.346;-1.688;2023-07-31T09:05:43;16.70;99.90
28171;DHT22;15458;53.346;-1.688;2023-07-31T09:08:11;16.70;99.90
28171;DHT22;15458;53.346;-1.688;2023-07-31T09:10:42;16.70;99.90
28171;DHT22;15458;53.346;-1.688;2023-07-31T09:13:08;16.70;99.90
28171;DHT22;15458;53.346;-1.688;2023-07-31T09:15:34;16.70;99.90
28171;DHT22;15458;53.346;-1.688;2023-07-31T09:18:01;16.80;99.90
28171;DHT22;15458;53.346;-1.688;2023-07-31T09:20:27;16.80;99.90
28171;DHT22;15458;53.346;-1.688;2023-07-31T09:22:55;16.80;99.90
28171;DHT22;15458;53.346;-1.688;2023-07-31T09:25:25;16.80;99.90
28171;DHT22;15458;53.346;-1.688;2023-07-31T09:27:58;16.80;99.90
28171;DHT22;15458;53.346;-1.688;2023-07-31T09:30:25;16.80;99.90
28171;DHT22;15458;53.346;-1.688;2023-07-31T09:32:52;16.80;99.90
28171;DHT22;15458;53.346;-1.688;2023-07-31T09:35:29;16.80;99.90
28171;DHT22;15458;53.346;-1.688;2023-07-31T09:38:14;16.80;99.90
28171;DHT22;15458;53.346;-1.688;2023-07-31T09:40:45;16.80;99.90
28171;DHT22;15458;53.346;-1.688;2023-07-31T09:43:18;16.70;99.90
28171;DHT22;15458;53.346;-1.688;2023-07-31T09:45:45;16.70;99.90
28171;DHT22;15458;53.346;-1.688;2023-07-31T09:48:17;16.70;99.90
28171;DHT22;15458;53.346;-1.688;2023-07-31T09:50:48;16.70;99.90
28171;DHT22;15458;53.346;-1.688;2023-07-31T09:53:15;16.70;99.90
28171;DHT22;15458;53.346;-1.688;2023-07-31T09:55:42;16.70;99.90
28171;DHT22;15458;53.346;-1.688;2023-07-31T09:58:12;16.70;99.90
28171;DHT22;15458;53.346;-1.688;2023-07-31T10:00:38;16.70;99.90
28171;DHT22;15458;53.346;-1.688;2023-07-31T10:03:06;16.70;99.90
28171;DHT22;15458;53.346;-1.688;2023-07-31T10:05:35;16.70;99.90
28171;DHT22;15458;53.346;-1.688;2023-07-31T10:08:01;16.70;99.90
28171;DHT22;15458;53.346;-1.688;2023-07-31T10:10:27;16.70;99.90
28171;DHT22;15458;53.346;-1.688;2023-07-31T10:12:54;16.70;99.90
28171;DHT22;15458;53.346;-1.688;2023-07-31T10:15:21;16.70;99.90
28171;DHT22;15458;53.346;-1.688;2023-07-31T10:17:48;16.70;99.90
28171;DHT22;15458;53.346;-1.688;2023-07-31T10:20:15;16.70;99.90
28171;DHT22;15458;53.346;-1.688;2023-07-31T10:22:44;16.70;99.90
28171;DHT22;15458;53.346;-1.688;2023-07-31T10:25:13;16.70;99.90
28171;DHT22;15458;53.346;-1.688;2023-07-31T10:27:40;16.70;99.90
28171;DHT22;15458;53.346;-1.688;2023-07-31T10:30:11;16.60;99.90
28171;DHT22;15458;53.346;-1.688;2023-07-31T10:32:39;16.70;99.90
28171;DHT22;15458;53.346;-1.688;2023-07-31T10:35:07;16.60;99.90
28171;DHT22;15458;53.346;-1.688;2023-07-31T10:37:41;16.70;99.90
28171;DHT22;15458;53.346;-1.688;2023-07-31T10:40:19;16.60;99.90
28171;DHT22;15458;53.346;-1.688;2023-07-31T10:42:54;16.60;99.90
28171;DHT22;15458;53.346;-1.688;2023-07-31T10:45:39;16.60;99.90
28171;DHT22;15458;53.346;-1.688;2023-07-31T10:48:15;16.60;99.90
28171;DHT22;15458;53.346;-1.688;2023-07-31T10:51:08;16.60;99.90
28171;DHT22;15458;53.346;-1.688;2023-07-31T10:53:34;16.60;99.90
28171;DHT22;15458;53.346;-1.688;2023-07-31T10:56:04;16.60;99.90
28171;DHT22;15458;53.346;-1.688;2023-07-31T10:58:30;16.60;99.90
28171;DHT22;15458;53.346;-1.688;2023-07-31T11:01:00;16.60;99.90
28171;DHT22;15458;53.346;-1.688;2023-07-31T11:03:48;16.60;99.90
28171;DHT22;15458;53.346;-1.688;2023-07-31T11:06:15;16.60;99.90
28171;DHT22;15458;53.346;-1.688;2023-07-31T11:08:43;16.60;99.90
28171;DHT22;15458;53.346;-1.688;2023-07-31T11:11:11;16.70;99.90
28171;DHT22;15458;53.346;-1.688;2023-07-31T11:13:42;16.70;99.90
28171;DHT22;15458;53.346;-1.688;2023-07-31T11:16:08;16.70;99.90
28171;DHT22;15458;53.346;-1.688;2023-07-31T11:18:35;16.60;99.90
28171;DHT22;15458;53.346;-1.688;2023-07-31T11:21:01;16.60;99.90
28171;DHT22;15458;53.346;-1.688;2023-07-31T11:23:26;16.60;99.90
28171;DHT22;15458;53.346;-1.688;2023-07-31T11:25:52;16.60;99.90
28171;DHT22;15458;53.346;-1.688;2023-07-31T11:28:19;16.60;99.90
28171;DHT22;15458;53.346;-1.688;2023-07-31T11:30:45;16.60;99.90
28171;DHT22;15458;53.346;-1.688;2023-07-31T11:33:13;16.50;99.90
28171;DHT22;15458;53.346;-1.688;2023-07-31T11:35:46;16.50;99.90
28171;DHT22;15458;53.346;-1.688;2023-07-31T11:38:27;16.50;99.90
28171;DHT22;15458;53.346;-1.688;2023-07-31T11:40:58;16.50;99.90
28171;DHT22;15458;53.346;-1.688;2023-07-31T11:43:25;16.50;99.90
28171;DHT22;15458;53.346;-1.688;2023-07-31T11:45:53;16.50;99.90
28171;DHT22;15458;53.346;-1.688;2023-07-31T11:48:28;16.50;99.90
28171;DHT22;15458;53.346;-1.688;2023-07-31T11:50:57;16.50;99.90
28171;DHT22;15458;53.346;-1.688;2023-07-31T11:55:55;16.50;99.90
28171;DHT22;15458;53.346;-1.688;2023-07-31T11:58:23;16.50;99.90
28171;DHT22;15458;53.346;-1.688;2023-07-31T12:00:49;16.50;99.90
28171;DHT22;15458;53.346;-1.688;2023-07-31T12:03:15;16.50;99.90
28171;DHT22;15458;53.346;-1.688;2023-07-31T12:05:41;16.40;99.90
28171;DHT22;15458;53.346;-1.688;2023-07-31T12:08:12;16.50;99.90
28171;DHT22;15458;53.346;-1.688;2023-07-31T12:10:38;16.50;99.90
28171;DHT22;15458;53.346;-1.688;2023-07-31T12:13:09;16.50;99.90
28171;DHT22;15458;53.346;-1.688;2023-07-31T12:15:43;16.60;99.90
28171;DHT22;15458;53.346;-1.688;2023-07-31T12:18:15;16.60;99.90
28171;DHT22;15458;53.346;-1.688;2023-07-31T12:21:01;16.60;99.90
28171;DHT22;15458;53.346;-1.688;2023-07-31T12:23:34;16.60;99.90
28171;DHT22;15458;53.346;-1.688;2023-07-31T12:26:03;16.60;99.90
28171;DHT22;15458;53.346;-1.688;2023-07-31T12:28:30;16.60;99.90
28171;DHT22;15458;53.346;-1.688;2023-07-31T12:31:00;16.60;99.90
28171;DHT22;15458;53.346;-1.688;2023-07-31T12:33:31;16.60;99.90
28171;DHT22;15458;53.346;-1.688;2023-07-31T12:35:58;16.50;99.90
28171;DHT22;15458;53.346;-1.688;2023-07-31T12:38:23;16.50;99.90
28171;DHT22;15458;53.346;-1.688;2023-07-31T12:40:49;16.50;99.90
28171;DHT22;15458;53.346;-1.688;2023-07-31T12:43:15;16.40;99.90
28171;DHT22;15458;53.346;-1.688;2023-07-31T12:45:41;16.40;99.90
28171;DHT22;15458;53.346;-1.688;2023-07-31T12:48:07;16.40;99.90
28171;DHT22;15458;53.346;-1.688;2023-07-31T12:50:32;16.40;99.90
28171;DHT22;15458;53.346;-1.688;2023-07-31T12:52:58;16.30;99.90
28171;DHT22;15458;53.346;-1.688;2023-07-31T12:55:24;16.30;99.90
28171;DHT22;15458;53.346;-1.688;2023-07-31T12:57:50;16.30;99.90
28171;DHT22;15458;53.346;-1.688;2023-07-31T13:00:16;16.20;99.90
28171;DHT22;15458;53.346;-1.688;2023-07-31T13:02:42;16.20;99.90
28171;DHT22;15458;53.346;-1.688;2023-07-31T13:05:08;16.20;99.90
28171;DHT22;15458;53.346;-1.688;2023-07-31T13:07:34;16.20;99.90
28171;DHT22;15458;53.346;-1.688;2023-07-31T13:10:00;16.20;99.90
28171;DHT22;15458;53.346;-1.688;2023-07-31T13:12:25;16.10;99.90
28171;DHT22;15458;53.346;-1.688;2023-07-31T13:14:51;16.20;99.90
28171;DHT22;15458;53.346;-1.688;2023-07-31T13:17:18;16.20;99.90
28171;DHT22;15458;53.346;-1.688;2023-07-31T13:19:44;16.20;99.90
28171;DHT22;15458;53.346;-1.688;2023-07-31T13:22:09;16.20;99.90
28171;DHT22;15458;53.346;-1.688;2023-07-31T13:24:35;16.20;99.90
28171;DHT22;15458;53.346;-1.688;2023-07-31T13:27:01;16.20;99.90
28171;DHT22;15458;53.346;-1.688;2023-07-31T13:29:27;16.20;99.90
28171;DHT22;15458;53.346;-1.688;2023-07-31T13:31:53;16.20;99.90
28171;DHT22;15458;53.346;-1.688;2023-07-31T13:34:18;16.30;99.90
28171;DHT22;15458;53.346;-1.688;2023-07-31T13:36:44;16.30;99.90
28171;DHT22;15458;53.346;-1.688;2023-07-31T13:39:10;16.30;99.90
28171;DHT22;15458;53.346;-1.688;2023-07-31T13:41:35;16.30;99.90
28171;DHT22;15458;53.346;-1.688;2023-07-31T13:44:05;16.40;99.90
28171;DHT22;15458;53.346;-1.688;2023-07-31T13:46:31;16.40;99.90
28171;DHT22;15458;53.346;-1.688;2023-07-31T13:48:58;16.50;99.90
28171;DHT22;15458;53.346;-1.688;2023-07-31T13:51:25;16.60;99.90
28171;DHT22;15458;53.346;-1.688;2023-07-31T13:53:51;16.60;99.90
28171;DHT22;15458;53.346;-1.688;2023-07-31T13:56:16;16.70;99.90
28171;DHT22;15458;53.346;-1.688;2023-07-31T13:58:42;16.70;99.90
28171;DHT22;15458;53.346;-1.688;2023-07-31T14:01:09;16.70;99.90
28171;DHT22;15458;53.346;-1.688;2023-07-31T14:03:36;16.70;99.90
28171;DHT22;15458;53.346;-1.688;2023-07-31T14:06:02;16.70;99.90
28171;DHT22;15458;53.346;-1.688;2023-07-31T14:08:28;16.70;99.90
28171;DHT22;15458;53.346;-1.688;2023-07-31T14:10:55;16.80;99.90
28171;DHT22;15458;53.346;-1.688;2023-07-31T14:13:21;16.80;99.90
28171;DHT22;15458;53.346;-1.688;2023-07-31T14:15:49;16.90;99.90
28171;DHT22;15458;53.346;-1.688;2023-07-31T14:18:15;17.00;99.90
28171;DHT22;15458;53.346;-1.688;2023-07-31T14:20:44;17.00;99.90
28171;DHT22;15458;53.346;-1.688;2023-07-31T14:23:11;17.00;99.90
28171;DHT22;15458;53.346;-1.688;2023-07-31T14:25:41;17.00;99.90
28171;DHT22;15458;53.346;-1.688;2023-07-31T14:28:06;17.00;99.90
28171;DHT22;15458;53.346;-1.688;2023-07-31T14:30:32;16.90;99.90
28171;DHT22;15458;53.346;-1.688;2023-07-31T14:32:58;16.90;99.90
28171;DHT22;15458;53.346;-1.688;2023-07-31T14:35:25;16.90;99.90
28171;DHT22;15458;53.346;-1.688;2023-07-31T14:37:51;16.90;99.90
28171;DHT22;15458;53.346;-1.688;2023-07-31T14:40:17;16.90;99.90
28171;DHT22;15458;53.346;-1.688;2023-07-31T14:42:42;16.90;99.90
28171;DHT22;15458;53.346;-1.688;2023-07-31T14:45:08;16.90;99.90
28171;DHT22;15458;53.346;-1.688;2023-07-31T14:47:35;16.80;99.90
28171;DHT22;15458;53.346;-1.688;2023-07-31T14:50:02;16.80;99.90
28171;DHT22;15458;53.346;-1.688;2023-07-31T14:52:28;16.80;99.90
28171;DHT22;15458;53.346;-1.688;2023-07-31T14:54:54;16.70;99.90
28171;DHT22;15458;53.346;-1.688;2023-07-31T14:57:20;16.70;99.90
28171;DHT22;15458;53.346;-1.688;2023-07-31T14:59:47;16.70;99.90
28171;DHT22;15458;53.346;-1.688;2023-07-31T15:02:14;16.70;99.90
28171;DHT22;15458;53.346;-1.688;2023-07-31T15:04:40;16.60;99.90
28171;DHT22;15458;53.346;-1.688;2023-07-31T15:07:06;16.60;99.90
28171;DHT22;15458;53.346;-1.688;2023-07-31T15:09:31;16.60;99.90
28171;DHT22;15458;53.346;-1.688;2023-07-31T15:11:58;16.60;99.90
28171;DHT22;15458;53.346;-1.688;2023-07-31T15:14:24;16.60;99.90
28171;DHT22;15458;53.346;-1.688;2023-07-31T15:16:49;16.60;99.90
28171;DHT22;15458;53.346;-1.688;2023-07-31T15:19:15;16.50;99.90
28171;DHT22;15458;53.346;-1.688;2023-07-31T15:21:41;16.50;99.90
28171;DHT22;15458;53.346;-1.688;2023-07-31T15:24:07;16.40;99.90